createdAt,value
2023-03-23T16:02:23.833Z,41.90
2023-03-23T16:07:44.798Z,41.69
2023-03-23T16:13:06.227Z,42.53
2023-03-23T16:18:27.420Z,42.44
2023-03-23T16:23:48.541Z,42.89
2023-03-23T16:29:23.866Z,43.21
2023-03-23T16:34:54.445Z,43.30
2023-03-23T16:40:16.240Z,43.68
2023-03-23T16:45:43.774Z,44.44
2023-03-23T16:51:05.572Z,44.31
2023-03-23T16:56:26.528Z,44.91
2023-03-23T17:01:47.254Z,45.29
2023-03-23T17:07:08.009Z,45.89
2023-03-23T17:12:28.652Z,45.74
2023-03-23T17:17:49.530Z,46.28
2023-03-23T17:23:10.358Z,46.19
2023-03-23T17:28:31.418Z,46.76
2023-03-23T17:34:20.036Z,46.89
2023-03-23T17:39:43.245Z,46.92
2023-03-23T17:45:06.714Z,47.45
2023-03-23T17:50:32.235Z,47.33
2023-03-23T17:55:53.171Z,47.46
2023-03-23T18:01:14.374Z,47.42
2023-03-23T18:06:35.129Z,47.31
2023-03-23T18:11:57.861Z,47.01
2023-03-23T18:17:18.839Z,47.38
2023-03-23T18:23:53.181Z,47.68
2023-03-23T18:29:19.591Z,47.48
2023-03-23T18:34:41.567Z,47.55
2023-03-23T18:40:43.831Z,47.70
2023-03-23T18:46:33.256Z,47.90
2023-03-23T18:51:53.799Z,47.95
2023-03-23T18:57:16.168Z,48.11
2023-03-23T19:02:39.397Z,47.89
2023-03-23T19:08:00.701Z,47.93
2023-03-23T19:13:21.518Z,47.77
2023-03-23T19:18:42.395Z,47.76
2023-03-23T19:24:03.487Z,47.88
2023-03-23T19:29:26.986Z,47.71
2023-03-23T19:34:50.976Z,47.98
2023-03-23T19:40:36.612Z,47.80
2023-03-23T19:46:00.889Z,47.73
2023-03-23T19:51:22.500Z,48.07
2023-03-23T19:56:51.858Z,48.02
2023-03-23T20:02:12.934Z,48.12
2023-03-23T20:08:11.172Z,48.38
2023-03-23T20:13:32.412Z,48.01
2023-03-23T20:19:23.549Z,48.82
2023-03-23T20:25:45.239Z,48.46
2023-03-23T20:31:41.550Z,48.57
2023-03-23T20:37:32.065Z,48.76
2023-03-23T20:42:57.784Z,48.90
2023-03-23T20:48:46.432Z,48.87
2023-03-23T20:54:07.074Z,48.98
2023-03-23T20:59:55.874Z,49.09
2023-03-23T21:05:16.451Z,49.14
2023-03-23T21:10:37.674Z,49.39
2023-03-23T21:15:58.418Z,49.55
2023-03-23T21:21:19.194Z,49.49
2023-03-23T21:26:40.153Z,49.63
2023-03-23T21:32:08.380Z,49.74
2023-03-23T21:37:29.858Z,49.81
2023-03-23T21:42:51.688Z,49.90
2023-03-23T21:48:14.955Z,50.27
2023-03-23T21:53:37.059Z,50.13
2023-03-23T21:58:57.750Z,50.46
2023-03-23T22:04:19.426Z,50.62
2023-03-23T22:09:45.054Z,50.92
2023-03-23T22:15:08.669Z,50.83
2023-03-23T22:20:29.493Z,51.67
2023-03-23T22:25:50.801Z,51.09
2023-03-23T22:31:14.131Z,51.16
2023-03-23T22:36:35.422Z,51.38
2023-03-23T22:41:56.588Z,51.46
2023-03-23T22:47:17.732Z,51.49
2023-03-23T22:52:38.768Z,51.37
2023-03-23T22:57:59.379Z,51.47
2023-03-23T23:03:20.351Z,51.54
2023-03-23T23:08:41.587Z,51.81
2023-03-23T23:14:02.999Z,52.14
2023-03-23T23:19:24.255Z,52.38
2023-03-23T23:24:46.218Z,52.35
2023-03-23T23:30:08.547Z,52.33
2023-03-23T23:35:29.490Z,52.47
2023-03-23T23:40:50.571Z,52.52
2023-03-23T23:46:11.569Z,52.62
2023-03-23T23:51:33.720Z,52.71
2023-03-23T23:56:54.649Z,53.25
